createdAt,value
2018-03-15T00:00:01.451Z,9.90
2018-03-15T00:02:29.762Z,10.27
2018-03-15T00:04:58.081Z,11.13
2018-03-15T00:07:26.553Z,12.17
2018-03-15T00:09:54.143Z,11.00
2018-03-15T00:12:23.431Z,11.07
2018-03-15T00:14:50.960Z,11.63
2018-03-15T00:17:18.425Z,11.73
2018-03-15T00:19:45.994Z,11.50
2018-03-15T00:22:13.589Z,11.93
2018-03-15T00:24:41.083Z,11.10
2018-03-15T00:27:08.605Z,11.43
2018-03-15T00:29:36.228Z,10.80
2018-03-15T00:32:04.626Z,10.37
2018-03-15T00:34:33.706Z,10.20
2018-03-15T00:37:01.224Z,10.53
2018-03-15T00:39:28.720Z,10.63
2018-03-15T00:41:57.063Z,10.30
2018-03-15T00:44:24.603Z,10.70
2018-03-15T00:46:54.059Z,11.50
2018-03-15T00:49:21.554Z,10.23
2018-03-15T00:51:49.104Z,10.03
2018-03-15T00:54:17.483Z,8.87
2018-03-15T00:56:45.010Z,9.23
2018-03-15T00:59:12.832Z,8.03
2018-03-15T01:01:40.408Z,9.67
2018-03-15T01:04:07.902Z,9.20
2018-03-15T01:06:35.437Z,8.40
2018-03-15T01:09:03.802Z,9.30
2018-03-15T01:11:32.308Z,8.77
2018-03-15T01:13:59.819Z,7.60
2018-03-15T01:16:27.408Z,9.13
2018-03-15T01:18:54.949Z,6.40
2018-03-15T01:21:22.440Z,8.00
2018-03-15T01:23:52.904Z,9.90
2018-03-15T01:26:20.398Z,8.77
2018-03-15T01:28:47.976Z,8.50
2018-03-15T01:31:20.012Z,8.40
2018-03-15T01:33:51.405Z,9.43
2018-03-15T01:36:19.707Z,8.50
2018-03-15T01:38:47.992Z,9.77
2018-03-15T01:41:15.592Z,9.17
2018-03-15T01:43:43.120Z,9.80
2018-03-15T01:46:11.806Z,8.87
2018-03-15T01:48:40.344Z,8.83
2018-03-15T01:51:08.636Z,8.10
2018-03-15T01:53:36.964Z,8.53
2018-03-15T01:56:04.500Z,9.10
2018-03-15T01:58:32.961Z,7.20
2018-03-15T02:01:00.460Z,8.40
2018-03-15T02:03:28.005Z,9.20
2018-03-15T02:05:57.856Z,8.10
2018-03-15T02:08:25.445Z,8.80
2018-03-15T02:10:52.939Z,6.43
2018-03-15T02:13:21.357Z,8.93
2018-03-15T02:15:48.932Z,7.80
2018-03-15T02:18:16.448Z,9.40
2018-03-15T02:20:44.795Z,10.80
2018-03-15T02:23:12.557Z,8.77
2018-03-15T02:25:40.096Z,9.40
2018-03-15T02:28:07.641Z,9.27
2018-03-15T02:30:35.996Z,10.00
2018-03-15T02:33:03.533Z,10.70
2018-03-15T02:35:31.306Z,9.37
2018-03-15T02:37:58.847Z,11.80
2018-03-15T02:40:26.333Z,9.20
2018-03-15T02:42:53.839Z,9.83
2018-03-15T02:45:21.403Z,10.30
2018-03-15T02:47:49.904Z,9.20
2018-03-15T02:50:17.484Z,10.30
2018-03-15T02:52:45.008Z,9.50
2018-03-15T02:55:12.568Z,10.37
2018-03-15T02:57:40.080Z,11.30
2018-03-15T03:00:07.624Z,11.47
2018-03-15T03:02:35.981Z,9.87
2018-03-15T03:05:03.501Z,8.50
2018-03-15T03:07:30.993Z,10.87
2018-03-15T03:09:58.564Z,9.40
2018-03-15T03:12:26.097Z,11.80
2018-03-15T03:14:55.301Z,10.57
2018-03-15T03:17:22.903Z,9.40
2018-03-15T03:19:51.853Z,10.20
2018-03-15T03:22:19.361Z,11.57
2018-03-15T03:24:46.950Z,10.47
2018-03-15T03:27:14.477Z,12.03
2018-03-15T03:29:42.028Z,10.00
2018-03-15T03:32:10.385Z,8.90
2018-03-15T03:34:38.664Z,9.67
2018-03-15T03:37:06.178Z,11.80
2018-03-15T03:39:33.715Z,8.80
2018-03-15T03:42:01.869Z,10.23
2018-03-15T03:44:29.387Z,10.10
2018-03-15T03:46:57.887Z,10.50
2018-03-15T03:49:26.224Z,10.00
2018-03-15T03:51:53.761Z,9.87
2018-03-15T03:54:21.512Z,10.20
2018-03-15T03:56:49.422Z,9.30
2018-03-15T03:59:16.960Z,11.27
2018-03-15T04:01:44.521Z,9.33
2018-03-15T04:04:12.019Z,8.60
2018-03-15T04:06:40.357Z,10.00
2018-03-15T04:09:07.867Z,10.90
2018-03-15T04:11:36.184Z,8.70
2018-03-15T04:14:03.738Z,9.07
2018-03-15T04:16:31.874Z,8.57
2018-03-15T04:18:59.383Z,9.87
2018-03-15T04:21:26.908Z,9.47
2018-03-15T04:23:54.432Z,10.73
2018-03-15T04:26:22.731Z,9.07
2018-03-15T04:28:50.262Z,9.40
2018-03-15T04:31:17.856Z,9.60
2018-03-15T04:33:45.388Z,7.50
2018-03-15T04:36:14.524Z,9.27
2018-03-15T04:38:42.037Z,10.27
2018-03-15T04:41:10.322Z,9.97
2018-03-15T04:43:38.588Z,10.20
2018-03-15T04:46:06.152Z,9.00
2018-03-15T04:48:34.427Z,10.67
2018-03-15T04:51:03.906Z,11.80
2018-03-15T04:53:31.867Z,10.27
2018-03-15T04:56:02.773Z,10.93
2018-03-15T04:58:31.383Z,10.57
2018-03-15T05:00:58.871Z,10.60
2018-03-15T05:03:28.963Z,10.53
2018-03-15T05:05:56.484Z,8.77
2018-03-15T05:08:25.466Z,12.47
2018-03-15T05:10:53.013Z,9.20
2018-03-15T05:13:24.024Z,11.50
2018-03-15T05:15:53.277Z,10.33
2018-03-15T05:18:29.693Z,10.57
2018-03-15T05:20:57.987Z,10.70
2018-03-15T05:23:25.485Z,9.63
2018-03-15T05:25:54.225Z,11.73
2018-03-15T05:28:22.659Z,11.47
2018-03-15T05:30:50.608Z,13.00
2018-03-15T05:33:18.120Z,11.63
2018-03-15T05:35:45.641Z,9.90
2018-03-15T05:38:13.139Z,11.70
2018-03-15T05:40:41.515Z,10.80
2018-03-15T05:43:09.084Z,9.73
2018-03-15T05:45:36.635Z,10.70
2018-03-15T05:48:04.840Z,9.60
2018-03-15T05:50:32.358Z,10.47
2018-03-15T05:53:00.852Z,11.50
2018-03-15T05:55:28.374Z,10.30
2018-03-15T05:57:55.940Z,9.53
2018-03-15T06:00:24.322Z,10.20
2018-03-15T06:02:53.028Z,9.87
2018-03-15T06:05:20.571Z,11.03
2018-03-15T06:07:49.229Z,9.43
2018-03-15T06:10:16.741Z,11.37
2018-03-15T06:12:44.336Z,10.70
2018-03-15T06:15:11.850Z,11.93
2018-03-15T06:17:39.406Z,10.20
2018-03-15T06:20:20.464Z,9.00
2018-03-15T06:23:06.013Z,10.07
2018-03-15T06:25:33.604Z,12.00
2018-03-15T06:34:03.418Z,12.10
2018-03-15T06:36:30.899Z,12.50
2018-03-15T06:38:58.413Z,11.40
2018-03-15T06:41:25.889Z,10.00
2018-03-15T06:43:53.393Z,11.10
2018-03-15T06:46:20.870Z,9.87
2018-03-15T06:48:48.385Z,10.70
2018-03-15T06:51:15.861Z,11.13
2018-03-15T06:53:43.368Z,10.97
2018-03-15T06:56:10.856Z,10.00
2018-03-15T06:58:38.374Z,11.80
2018-03-15T07:01:06.628Z,11.13
2018-03-15T07:03:34.105Z,11.30
2018-03-15T07:06:02.387Z,9.63
2018-03-15T07:08:30.632Z,10.43
2018-03-15T07:10:58.149Z,10.03
2018-03-15T07:13:25.628Z,11.07
2018-03-15T07:15:53.105Z,11.10
2018-03-15T07:18:21.452Z,9.80
2018-03-15T07:20:48.962Z,10.50
2018-03-15T07:23:16.435Z,14.53
2018-03-15T07:25:44.698Z,10.43
2018-03-15T07:28:12.943Z,11.53
2018-03-15T07:30:40.487Z,11.30
2018-03-15T07:33:07.968Z,10.73
2018-03-15T07:35:36.836Z,8.93
2018-03-15T07:38:04.373Z,10.20
2018-03-15T07:40:31.878Z,11.27
2018-03-15T07:42:59.370Z,12.90
2018-03-15T07:45:26.930Z,9.80
2018-03-15T07:47:54.457Z,12.33
2018-03-15T07:50:21.977Z,10.20
2018-03-15T07:52:49.777Z,11.10
2018-03-15T07:55:17.475Z,10.47
2018-03-15T07:57:45.724Z,11.23
2018-03-15T08:00:13.271Z,11.07
2018-03-15T08:02:40.770Z,9.83
2018-03-15T08:05:09.083Z,10.33
2018-03-15T08:07:36.563Z,10.03
2018-03-15T08:10:05.217Z,10.33
2018-03-15T08:12:32.737Z,11.10
2018-03-15T08:15:00.209Z,12.03
2018-03-15T08:17:27.724Z,11.33
2018-03-15T08:19:55.206Z,12.70
2018-03-15T08:22:22.770Z,11.77
2018-03-15T08:24:51.182Z,11.70
2018-03-15T08:27:19.142Z,12.30
2018-03-15T08:29:46.619Z,10.60
2018-03-15T08:32:14.098Z,10.60
2018-03-15T08:34:41.609Z,11.63
2018-03-15T08:37:09.894Z,11.30
2018-03-15T08:39:38.223Z,10.07
2018-03-15T08:42:05.694Z,12.67
2018-03-15T08:44:33.202Z,11.33
2018-03-15T08:47:01.110Z,10.90
2018-03-15T08:49:28.618Z,11.10
2018-03-15T08:51:56.095Z,10.63
2018-03-15T08:54:23.635Z,11.47
2018-03-15T08:56:51.164Z,12.70
2018-03-15T08:59:18.703Z,11.03
2018-03-15T09:01:46.866Z,10.40
2018-03-15T09:04:14.386Z,10.50
2018-03-15T09:06:41.904Z,10.90
2018-03-15T09:09:09.382Z,11.07
2018-03-15T09:11:37.663Z,12.40
2018-03-15T09:14:05.172Z,11.30
2018-03-15T09:16:32.699Z,10.20
2018-03-15T09:19:00.600Z,11.83
2018-03-15T09:21:28.108Z,11.87
2018-03-15T09:23:56.511Z,12.97
2018-03-15T09:26:23.995Z,12.17
2018-03-15T09:28:51.516Z,11.57
2018-03-15T09:31:19.009Z,10.60
2018-03-15T09:33:46.527Z,12.33
2018-03-15T09:36:14.075Z,11.33
2018-03-15T09:38:41.702Z,11.13
2018-03-15T09:41:09.221Z,10.20
2018-03-15T09:43:36.769Z,11.47
2018-03-15T09:46:04.385Z,11.03
2018-03-15T09:48:31.883Z,10.27
2018-03-15T09:51:00.226Z,12.20
2018-03-15T09:53:28.077Z,11.00
2018-03-15T09:55:55.569Z,10.80
2018-03-15T09:58:23.103Z,11.00
2018-03-15T10:00:50.696Z,11.10
2018-03-15T10:03:18.955Z,12.77
2018-03-15T10:05:46.541Z,10.67
2018-03-15T10:08:13.976Z,11.47
2018-03-15T10:10:45.598Z,10.67
2018-03-15T10:13:13.099Z,11.30
2018-03-15T10:15:41.439Z,12.10
2018-03-15T10:18:08.935Z,9.53
2018-03-15T10:20:37.715Z,9.43
2018-03-15T10:23:05.216Z,9.27
2018-03-15T10:25:32.749Z,8.07
2018-03-15T10:28:01.054Z,9.60
2018-03-15T10:30:28.553Z,10.73
2018-03-15T10:33:01.764Z,8.63
2018-03-15T10:35:29.294Z,9.83
2018-03-15T10:37:56.850Z,8.83
2018-03-15T10:40:24.377Z,8.77
2018-03-15T10:42:51.906Z,9.63
2018-03-15T10:45:20.267Z,9.60
2018-03-15T10:47:47.940Z,9.93
2018-03-15T10:50:16.086Z,8.40
2018-03-15T10:52:43.629Z,9.37
2018-03-15T10:55:11.209Z,8.60
2018-03-15T10:57:39.485Z,9.00
2018-03-15T11:00:07.152Z,8.60
2018-03-15T11:02:41.208Z,8.50
2018-03-15T11:05:14.311Z,9.13
2018-03-15T11:07:41.887Z,8.30
2018-03-15T11:10:09.411Z,9.60
2018-03-15T11:12:37.572Z,7.47
2018-03-15T11:15:05.912Z,8.17
2018-03-15T11:17:33.430Z,7.83
2018-03-15T11:20:00.942Z,8.70
2018-03-15T11:22:28.463Z,9.17
2018-03-15T11:24:55.971Z,8.53
2018-03-15T11:27:23.540Z,7.70
2018-03-15T11:29:51.082Z,7.90
2018-03-15T11:32:18.615Z,8.73
2018-03-15T11:34:46.144Z,8.07
2018-03-15T11:37:17.558Z,8.43
2018-03-15T11:39:45.969Z,9.80
2018-03-15T11:42:13.482Z,10.23
2018-03-15T11:44:42.946Z,10.83
2018-03-15T11:47:10.456Z,10.17
2018-03-15T11:49:38.003Z,11.67
2018-03-15T11:52:05.537Z,11.10
2018-03-15T11:54:33.071Z,11.80
2018-03-15T11:57:01.367Z,11.30
2018-03-15T11:59:28.869Z,11.77
2018-03-15T12:01:56.455Z,11.20
2018-03-15T12:04:23.993Z,10.40
2018-03-15T12:06:51.758Z,11.90
2018-03-15T12:09:20.083Z,10.10
2018-03-15T12:11:47.583Z,11.47
2018-03-15T12:14:15.081Z,10.70
2018-03-15T12:16:43.407Z,12.07
2018-03-15T12:19:10.887Z,12.40
2018-03-15T12:21:38.395Z,11.70
2018-03-15T12:24:06.653Z,13.00
2018-03-15T12:26:34.171Z,11.73
2018-03-15T12:29:01.665Z,12.37
2018-03-15T12:31:29.177Z,12.47
2018-03-15T12:33:56.694Z,12.43
2018-03-15T12:36:25.573Z,12.50
2018-03-15T12:38:53.082Z,11.50
2018-03-15T12:41:20.581Z,11.17
2018-03-15T12:43:48.064Z,11.37
2018-03-15T12:46:16.339Z,12.70
2018-03-15T12:48:44.639Z,13.00
2018-03-15T12:51:12.281Z,11.20
2018-03-15T12:53:39.790Z,11.77
2018-03-15T12:56:08.059Z,12.00
2018-03-15T12:58:35.567Z,12.70
2018-03-15T13:01:03.858Z,11.87
2018-03-15T13:03:31.369Z,11.20
2018-03-15T13:05:58.861Z,10.90
2018-03-15T13:08:27.099Z,9.97
2018-03-15T13:10:54.840Z,11.20
2018-03-15T13:13:22.407Z,10.53
2018-03-15T13:15:50.345Z,10.93
2018-03-15T13:18:17.855Z,11.07
2018-03-15T13:20:45.347Z,11.43
2018-03-15T13:23:12.880Z,10.93
2018-03-15T13:25:40.705Z,11.27
2018-03-15T13:28:08.238Z,11.97
2018-03-15T13:30:36.087Z,10.17
2018-03-15T13:33:03.559Z,9.67
2018-03-15T13:35:31.110Z,10.57
2018-03-15T13:37:58.598Z,10.67
2018-03-15T13:40:26.349Z,10.53
2018-03-15T13:42:53.925Z,10.43
2018-03-15T13:45:21.402Z,9.50
2018-03-15T13:47:49.782Z,11.13
2018-03-15T13:50:17.267Z,8.50
2018-03-15T13:52:45.578Z,9.23
2018-03-15T13:55:13.060Z,8.67
2018-03-15T13:57:40.564Z,8.23
2018-03-15T14:00:08.052Z,9.10
2018-03-15T14:02:35.634Z,9.50
2018-03-15T14:05:03.137Z,8.60
2018-03-15T14:07:30.709Z,10.57
2018-03-15T14:09:58.189Z,9.17
2018-03-15T14:12:27.459Z,9.50
2018-03-15T14:14:54.944Z,9.83
2018-03-15T14:17:23.383Z,11.00
2018-03-15T14:19:50.879Z,10.20
2018-03-15T14:22:18.374Z,10.03
2018-03-15T14:24:46.917Z,10.30
2018-03-15T14:27:16.015Z,9.30
2018-03-15T14:29:47.877Z,10.83
2018-03-15T14:32:22.540Z,10.30
2018-03-15T14:34:50.057Z,10.73
2018-03-15T14:37:17.564Z,9.33
2018-03-15T14:39:45.079Z,10.60
2018-03-15T14:42:12.555Z,9.77
2018-03-15T14:44:40.109Z,7.60
2018-03-15T14:47:08.346Z,8.13
2018-03-15T14:49:35.858Z,8.43
2018-03-15T14:52:03.871Z,8.10
2018-03-15T14:54:31.390Z,9.77
2018-03-15T14:56:59.386Z,9.50
2018-03-15T14:59:26.915Z,10.60
2018-03-15T15:01:54.415Z,8.70
2018-03-15T15:04:21.886Z,9.93
2018-03-15T15:06:49.835Z,10.47
2018-03-15T15:09:17.336Z,9.93
2018-03-15T15:11:46.591Z,9.37
2018-03-15T15:14:14.786Z,10.00
2018-03-15T15:16:42.267Z,10.60
2018-03-15T15:19:09.794Z,11.90
2018-03-15T15:21:38.221Z,10.13
2018-03-15T15:24:05.766Z,11.20
2018-03-15T15:26:34.860Z,10.00
2018-03-15T15:29:03.166Z,13.43
2018-03-15T15:31:30.682Z,10.50
2018-03-15T15:33:58.977Z,10.70
2018-03-15T15:36:26.402Z,9.60
2018-03-15T15:39:09.272Z,10.00
2018-03-15T15:41:36.880Z,11.57
2018-03-15T15:44:04.359Z,11.17
2018-03-15T15:46:36.780Z,10.70
2018-03-15T15:49:04.301Z,11.07
2018-03-15T15:51:32.546Z,10.63
2018-03-15T15:54:00.096Z,11.40
2018-03-15T15:56:27.656Z,11.60
2018-03-15T15:58:55.298Z,11.13
2018-03-15T16:01:23.586Z,11.03
2018-03-15T16:03:51.974Z,11.10
2018-03-15T16:06:21.063Z,12.40
2018-03-15T16:08:49.354Z,11.47
2018-03-15T16:11:16.914Z,10.80
2018-03-15T16:13:44.435Z,8.93
2018-03-15T16:16:12.984Z,12.20
2018-03-15T16:18:40.542Z,9.97
2018-03-15T16:21:08.069Z,11.60
2018-03-15T16:23:36.347Z,10.20
2018-03-15T16:26:03.892Z,9.83
2018-03-15T16:28:32.391Z,10.40
2018-03-15T16:30:59.906Z,10.00
2018-03-15T16:33:28.192Z,9.20
2018-03-15T16:35:56.854Z,9.90
2018-03-15T16:38:24.351Z,10.60
2018-03-15T16:40:53.294Z,11.10
2018-03-15T16:43:20.800Z,9.70
2018-03-15T16:45:48.398Z,10.67
2018-03-15T16:48:16.676Z,10.00
2018-03-15T16:50:44.171Z,11.70
2018-03-15T16:53:12.497Z,13.53
2018-03-15T16:55:40.255Z,11.10
2018-03-15T16:58:07.795Z,11.00
2018-03-15T17:00:35.343Z,12.17
2018-03-15T17:03:02.915Z,10.90
2018-03-15T17:05:30.380Z,10.00
2018-03-15T17:07:57.916Z,9.37
2018-03-15T17:10:25.411Z,11.50
2018-03-15T17:12:52.895Z,12.60
2018-03-15T17:15:20.415Z,11.70
2018-03-15T17:17:47.915Z,11.87
2018-03-15T17:20:15.502Z,13.90
2018-03-15T17:22:43.135Z,13.00
2018-03-15T17:25:10.667Z,13.60
2018-03-15T17:27:39.001Z,11.87
2018-03-15T17:30:07.283Z,12.17
2018-03-15T17:32:34.867Z,13.63
2018-03-15T17:35:02.388Z,13.20
2018-03-15T17:37:29.909Z,15.90
2018-03-15T17:39:57.409Z,11.37
2018-03-15T17:42:24.939Z,12.50
2018-03-15T17:44:52.506Z,11.43
2018-03-15T17:47:20.794Z,10.27
2018-03-15T17:49:48.372Z,12.17
2018-03-15T17:52:16.702Z,11.53
2018-03-15T17:54:44.515Z,12.50
2018-03-15T17:57:12.029Z,12.17
2018-03-15T17:59:39.626Z,14.67
2018-03-15T18:02:07.171Z,11.60
2018-03-15T18:04:34.741Z,12.80
2018-03-15T18:07:02.274Z,11.10
2018-03-15T18:09:29.775Z,13.83
2018-03-15T18:11:57.376Z,12.27
2018-03-15T18:14:24.894Z,12.47
2018-03-15T18:16:53.186Z,13.30
2018-03-15T18:19:21.509Z,15.30
2018-03-15T18:21:49.045Z,14.63
2018-03-15T18:24:16.532Z,13.60
2018-03-15T18:26:44.086Z,14.10
2018-03-15T18:29:11.599Z,13.37
2018-03-15T18:31:39.095Z,12.57
2018-03-15T18:34:06.611Z,14.27
2018-03-15T18:36:34.144Z,13.90
2018-03-15T18:39:01.682Z,12.27
2018-03-15T18:41:29.207Z,13.87
2018-03-15T18:43:56.718Z,16.00
2018-03-15T18:46:24.262Z,16.20
2018-03-15T18:48:51.763Z,13.50
2018-03-15T18:51:19.291Z,14.40
2018-03-15T18:53:46.797Z,14.57
2018-03-15T18:56:14.315Z,15.93
2018-03-15T18:58:41.839Z,14.90
2018-03-15T19:01:12.615Z,14.40
2018-03-15T19:03:36.885Z,14.53
2018-03-15T19:06:04.408Z,13.47
2018-03-15T19:08:31.950Z,13.43
2018-03-15T19:10:59.455Z,14.83
2018-03-15T19:13:26.947Z,14.57
2018-03-15T19:15:55.238Z,13.13
2018-03-15T19:18:23.518Z,12.63
2018-03-15T19:20:51.035Z,13.20
2018-03-15T19:23:18.521Z,13.43
2018-03-15T19:25:46.079Z,13.10
2018-03-15T19:28:13.704Z,12.23
2018-03-15T19:30:42.001Z,13.63
2018-03-15T19:33:10.316Z,15.80
2018-03-15T19:35:37.829Z,13.97
2018-03-15T19:38:05.360Z,14.17
2018-03-15T19:40:32.858Z,13.10
2018-03-15T19:43:00.430Z,13.97
2018-03-15T19:45:28.009Z,15.10
2018-03-15T19:47:56.272Z,14.80
2018-03-15T19:50:23.790Z,13.80
2018-03-15T19:52:51.324Z,14.40
2018-03-15T19:55:18.836Z,16.47
2018-03-15T19:57:46.395Z,14.13
2018-03-15T20:00:13.902Z,15.80
2018-03-15T20:02:42.373Z,17.00
2018-03-15T20:05:10.636Z,15.37
2018-03-15T20:07:38.115Z,16.20
2018-03-15T20:10:05.664Z,14.97
2018-03-15T20:12:33.193Z,15.83
2018-03-15T20:15:01.484Z,14.63
2018-03-15T20:17:29.758Z,14.70
2018-03-15T20:19:57.277Z,14.30
2018-03-15T20:22:30.292Z,15.40
2018-03-15T20:24:57.803Z,17.37
2018-03-15T20:27:31.717Z,15.67
2018-03-15T20:29:59.228Z,14.60
2018-03-15T20:32:32.267Z,14.37
2018-03-15T20:34:59.791Z,17.90
2018-03-15T20:37:27.300Z,16.23
2018-03-15T20:40:00.523Z,16.40
2018-03-15T20:42:28.032Z,18.60
2018-03-15T20:44:55.538Z,16.00
2018-03-15T20:47:28.710Z,18.73
2018-03-15T20:49:56.990Z,18.80
2018-03-15T20:52:25.243Z,15.23
2018-03-15T20:54:52.759Z,18.80
2018-03-15T20:57:21.027Z,16.00
2018-03-15T20:59:48.535Z,17.57
2018-03-15T21:02:16.063Z,20.57
2018-03-15T21:04:43.550Z,18.07
2018-03-15T21:07:11.870Z,16.43
2018-03-15T21:09:39.351Z,17.97
2018-03-15T21:12:06.866Z,18.23
2018-03-15T21:14:34.371Z,18.20
2018-03-15T21:17:01.859Z,17.70
2018-03-15T21:19:29.391Z,16.07
2018-03-15T21:21:57.646Z,17.37
2018-03-15T21:24:25.156Z,18.30
2018-03-15T21:26:52.855Z,17.50
2018-03-15T21:29:21.143Z,16.73
2018-03-15T21:31:48.647Z,19.47
2018-03-15T21:34:16.146Z,19.47
2018-03-15T21:36:43.659Z,19.57
2018-03-15T21:39:11.165Z,19.50
2018-03-15T21:41:38.696Z,17.17
2018-03-15T21:44:06.178Z,18.83
2018-03-15T21:46:33.696Z,18.53
2018-03-15T21:49:01.203Z,20.60
2018-03-15T21:51:28.682Z,18.37
2018-03-15T21:53:56.195Z,19.43
2018-03-15T21:56:23.706Z,19.13
2018-03-15T21:58:51.228Z,19.77
2018-03-15T22:01:18.708Z,20.90
2018-03-15T22:03:46.194Z,21.60
2018-03-15T22:06:13.703Z,21.87
2018-03-15T22:08:41.186Z,20.20
2018-03-15T22:11:08.704Z,21.30
2018-03-15T22:13:36.197Z,20.20
2018-03-15T22:16:04.491Z,20.47
2018-03-15T22:18:32.752Z,19.07
2018-03-15T22:21:00.231Z,20.60
2018-03-15T22:23:27.748Z,18.70
2018-03-15T22:25:55.229Z,20.53
2018-03-15T22:28:22.748Z,18.80
2018-03-15T22:30:51.044Z,17.60
2018-03-15T22:33:19.300Z,19.53
2018-03-15T22:35:46.815Z,21.33
2018-03-15T22:38:15.063Z,21.10
2018-03-15T22:40:42.675Z,19.70
2018-03-15T22:43:10.746Z,19.67
2018-03-15T22:45:39.007Z,21.63
2018-03-15T22:48:07.330Z,20.27
2018-03-15T22:50:35.579Z,22.20
2018-03-15T22:53:03.087Z,21.73
2018-03-15T22:55:31.371Z,22.47
2018-03-15T22:57:58.853Z,23.00
2018-03-15T23:00:27.139Z,21.10
2018-03-15T23:02:55.387Z,21.10
2018-03-15T23:05:22.862Z,22.07
2018-03-15T23:07:50.371Z,20.77
2018-03-15T23:10:18.639Z,20.50
2018-03-15T23:12:46.126Z,20.53
2018-03-15T23:15:14.406Z,20.37
2018-03-15T23:17:41.920Z,22.90
2018-03-15T23:20:09.458Z,21.33
2018-03-15T23:22:36.939Z,20.47
2018-03-15T23:25:05.187Z,20.00
2018-03-15T23:27:32.715Z,20.40
2018-03-15T23:30:00.194Z,21.00
2018-03-15T23:32:27.694Z,19.33
2018-03-15T23:34:55.180Z,21.73
2018-03-15T23:37:22.714Z,20.80
2018-03-15T23:39:50.221Z,21.47
2018-03-15T23:42:17.727Z,21.20
2018-03-15T23:44:45.235Z,20.13
2018-03-15T23:47:12.728Z,20.50
2018-03-15T23:49:40.259Z,19.60
2018-03-15T23:52:07.764Z,21.73
2018-03-15T23:54:35.278Z,20.13
2018-03-15T23:57:02.761Z,18.67
2018-03-15T23:59:30.278Z,18.60
